Ziguinchor, Senegal
Current Conditions -  °F | °C
As of 12:00 AM on Thursday 27 Nov 2014 (Local Time) from GOGG Reporting Station
Clear Clear  
Wind Chill: 24°   Ceiling: Unl
Heat Index: 24°   Visibility: 6mi
Dew Point: 22°   Wind: 2mph
Humidity: 89%   Direction: NA
Pressure: 29.88"   Gusts: NA
Location:  12.59°N, 16.29°W
Report Text: GOGG 270000Z VRB02KT CAVOK 24/22 Q1012
Loading
Personal Weather Stations






























Interactive Weather Map New forecast layout! Learn more

10-Day Weather Forecast

Advertisements
Track Severe Weather on mobile